Time;durP1;ratioP1;P1;durP2;ratioP2;P2;SDS_P1;SDS_P2;PMS_P1;PMS_P2;Temp;Humidity;BMP_temperature;BMP_pressure;BME280_temperature;BME280_humidity;BME280_pressure;Samples;Min_cycle;Max_cycle;Signal;HPM_P1;HPM_P2
2022/10/10 00:01:00;;;;;;;1.02;0.50;;;18.30;52.40;20.40;94036.00;;;;10524178;28;45248;-59
2022/10/10 00:06:22;;;;;;;0.52;0.40;;;18.20;52.30;20.40;94035.00;;;;10524731;28;45086;-59
2022/10/10 00:11:43;;;;;;;0.55;0.40;;;18.30;52.30;20.40;94027.00;;;;10523804;28;45884;-59
2022/10/10 00:17:05;;;;;;;0.77;0.50;;;18.30;52.30;20.40;94019.00;;;;10524547;28;45217;-59
2022/10/10 00:22:26;;;;;;;0.93;0.30;;;18.20;52.30;20.40;94025.00;;;;10552696;27;45166;-59
2022/10/10 00:27:46;;;;;;;0.70;0.50;;;18.30;52.30;20.40;94023.00;;;;10547311;27;45199;-59
2022/10/10 00:33:08;;;;;;;0.30;0.30;;;18.20;52.20;20.40;94027.00;;;;10524160;28;45234;-59
2022/10/10 00:38:29;;;;;;;0.45;0.40;;;18.30;52.20;20.40;94026.00;;;;10523469;28;45136;-59
2022/10/10 00:44:08;;;;;;;0.65;0.40;;;18.30;52.20;20.40;94016.00;;;;10522289;27;45787;-59
2022/10/10 00:49:31;;;;;;;0.90;0.50;;;18.20;52.20;20.30;94019.00;;;;10497047;28;45148;-59
2022/10/10 00:54:51;;;;;;;0.38;0.32;;;18.20;52.10;20.40;94009.00;;;;10523634;27;45208;-58
2022/10/10 01:00:13;;;;;;;0.90;0.40;;;18.20;52.10;20.30;94027.00;;;;10529840;27;45855;-59
2022/10/10 01:05:35;;;;;;;0.43;0.32;;;18.20;52.20;20.30;94018.00;;;;10540896;27;45280;-58
2022/10/10 01:11:09;;;;;;;0.65;0.45;;;18.20;52.20;20.30;94015.00;;;;10551778;27;45233;-58
2022/10/10 01:16:40;;;;;;;0.65;0.35;;;18.20;52.10;20.30;94011.00;;;;10522214;28;45739;-58
2022/10/10 01:22:17;;;;;;;0.38;0.38;;;18.20;52.10;20.30;94007.00;;;;10546358;27;45895;-59
2022/10/10 01:27:43;;;;;;;0.40;0.38;;;18.20;52.10;20.30;94006.00;;;;10547094;27;45864;-59
2022/10/10 01:33:13;;;;;;;0.50;0.40;;;18.20;52.10;20.30;94009.00;;;;10522136;28;45151;-59
2022/10/10 01:38:41;;;;;;;0.82;0.30;;;18.20;52.10;20.30;94005.00;;;;10511424;28;45506;-60
2022/10/10 01:44:02;;;;;;;0.60;0.40;;;18.20;52.10;20.30;94010.00;;;;10519191;27;45197;-58
2022/10/10 01:49:30;;;;;;;0.43;0.40;;;18.20;52.10;20.30;94015.00;;;;10511108;28;45325;-59
2022/10/10 01:55:03;;;;;;;0.70;0.50;;;18.20;52.00;20.30;94009.00;;;;10512839;28;45797;-60
2022/10/10 02:00:25;;;;;;;0.45;0.40;;;18.20;52.00;20.30;94006.00;;;;10519359;28;45334;-60
2022/10/10 02:05:53;;;;;;;0.52;0.40;;;18.10;52.00;20.30;94004.00;;;;10518432;28;45450;-60
2022/10/10 02:11:15;;;;;;;0.52;0.40;;;18.20;52.10;20.30;94016.00;;;;10515740;27;45476;-59
2022/10/10 02:16:41;;;;;;;0.80;0.50;;;18.20;52.00;20.30;94004.00;;;;10518540;28;45236;-58
2022/10/10 02:22:04;;;;;;;0.50;0.50;;;18.20;52.00;20.30;94007.00;;;;10517936;28;45773;-60
2022/10/10 02:27:35;;;;;;;0.70;0.40;;;18.20;52.00;20.30;93996.00;;;;10517782;28;45702;-59
2022/10/10 02:33:00;;;;;;;0.50;0.40;;;18.10;52.00;20.30;94009.00;;;;10518164;28;45356;-60
2022/10/10 02:38:22;;;;;;;0.60;0.50;;;18.10;51.90;20.30;93981.00;;;;10517531;28;45908;-60
2022/10/10 02:43:44;;;;;;;0.70;0.50;;;18.20;52.00;20.30;93999.00;;;;10524003;28;45152;-59
2022/10/10 02:49:08;;;;;;;1.05;0.35;;;18.10;51.90;20.30;94001.00;;;;10527677;28;45470;-59
2022/10/10 02:54:30;;;;;;;1.33;0.60;;;18.20;52.00;20.30;94002.00;;;;10527691;28;45169;-57
2022/10/10 02:59:51;;;;;;;0.68;0.40;;;18.10;52.00;20.30;93985.00;;;;10526310;28;45253;-59
2022/10/10 03:05:11;;;;;;;1.10;0.40;;;18.10;51.90;20.30;93981.00;;;;10526598;28;45808;-59
2022/10/10 03:10:33;;;;;;;0.40;0.30;;;18.10;51.90;20.30;93994.00;;;;10539911;27;45203;-58
2022/10/10 03:15:54;;;;;;;0.60;0.30;;;18.10;51.90;20.30;93985.00;;;;10526611;28;45292;-59
2022/10/10 03:21:14;;;;;;;0.55;0.38;;;18.10;52.00;20.30;93982.00;;;;10523836;28;46497;-57
2022/10/10 03:26:36;;;;;;;1.30;0.52;;;18.10;51.90;20.20;93985.00;;;;10525158;28;45155;-58
2022/10/10 03:31:57;;;;;;;0.80;0.40;;;18.10;51.90;20.20;93988.00;;;;10538501;27;45213;-57
2022/10/10 03:37:18;;;;;;;0.85;0.30;;;18.10;51.80;20.20;93982.00;;;;10525695;28;45701;-58
2022/10/10 03:42:39;;;;;;;0.30;0.30;;;18.10;51.90;20.20;93987.00;;;;10525343;28;45210;-59
2022/10/10 03:48:00;;;;;;;0.73;0.40;;;18.10;51.90;20.20;93984.00;;;;10525978;28;45679;-59
2022/10/10 03:53:22;;;;;;;0.60;0.45;;;18.10;51.90;20.20;93987.00;;;;10483360;28;45113;-58
2022/10/10 03:58:44;;;;;;;0.40;0.38;;;18.10;51.80;20.20;93987.00;;;;10549717;27;45881;-59
2022/10/10 04:04:05;;;;;;;0.75;0.40;;;18.10;51.80;20.20;94001.00;;;;10543453;27;45239;-59
2022/10/10 04:09:25;;;;;;;0.40;0.30;;;18.10;51.80;20.20;93995.00;;;;10524059;28;45298;-59
2022/10/10 04:14:47;;;;;;;0.40;0.40;;;18.10;51.80;20.20;94001.00;;;;10524403;28;45891;-59
2022/10/10 04:20:09;;;;;;;0.45;0.40;;;18.10;51.90;20.20;94000.00;;;;10522896;28;45224;-59
2022/10/10 04:25:29;;;;;;;0.52;0.40;;;18.10;51.90;20.20;94001.00;;;;10524062;28;45236;-58
2022/10/10 04:30:51;;;;;;;0.75;0.45;;;18.10;51.80;20.20;93991.00;;;;10529386;27;45158;-60
2022/10/10 04:36:12;;;;;;;0.32;0.32;;;18.10;51.80;20.20;93993.00;;;;10566246;27;45135;-59
2022/10/10 04:41:32;;;;;;;0.50;0.40;;;18.10;52.50;20.20;94000.00;;;;10547422;27;45694;-58
2022/10/10 04:46:54;;;;;;;0.65;0.40;;;18.10;51.90;20.20;94001.00;;;;10512653;28;45287;-59
2022/10/10 04:52:15;;;;;;;0.80;0.50;;;18.10;51.90;20.20;93986.00;;;;10526970;27;45384;-59
2022/10/10 04:57:35;;;;;;;0.77;0.40;;;18.10;51.90;20.20;94000.00;;;;10539117;27;45235;-59
2022/10/10 05:02:57;;;;;;;0.30;0.28;;;18.10;52.00;20.20;94007.00;;;;10519451;27;45764;-59
2022/10/10 05:08:19;;;;;;;0.60;0.43;;;18.10;52.00;20.30;94005.00;;;;10561407;27;45200;-59
2022/10/10 05:13:39;;;;;;;0.50;0.32;;;18.10;52.00;20.30;94000.00;;;;10538569;27;45223;-59
2022/10/10 05:19:01;;;;;;;0.55;0.40;;;18.10;52.00;20.20;94004.00;;;;10532725;27;45208;-59
2022/10/10 05:24:22;;;;;;;0.57;0.40;;;18.10;52.00;20.30;93997.00;;;;10502061;27;45206;-59
2022/10/10 05:29:43;;;;;;;1.83;0.65;;;18.10;52.00;20.20;93998.00;;;;10525456;27;45390;-59
2022/10/10 05:35:06;;;;;;;0.70;0.40;;;18.10;52.00;20.30;94004.00;;;;10521425;28;45233;-59
2022/10/10 05:40:27;;;;;;;0.40;0.32;;;18.10;52.00;20.30;93995.00;;;;10478170;28;45161;-59
2022/10/10 05:45:49;;;;;;;1.00;0.50;;;18.10;52.00;20.20;93987.00;;;;10478745;28;46586;-59
2022/10/10 05:51:12;;;;;;;0.70;0.40;;;18.10;52.00;20.30;93996.00;;;;10515764;28;45214;-60
2022/10/10 05:56:32;;;;;;;0.38;0.30;;;18.10;52.00;20.30;93999.00;;;;10521264;28;45235;-59
2022/10/10 06:01:53;;;;;;;0.40;0.40;;;18.20;52.00;20.30;93997.00;;;;10520082;28;45772;-59
2022/10/10 06:07:15;;;;;;;0.85;0.50;;;18.10;52.00;20.30;94002.00;;;;10520973;28;45150;-60
2022/10/10 06:12:36;;;;;;;0.50;0.40;;;18.10;52.00;20.30;94001.00;;;;10520840;28;45147;-57
2022/10/10 06:17:56;;;;;;;0.68;0.50;;;18.10;52.00;20.30;94010.00;;;;10551086;27;45163;-59
2022/10/10 06:23:19;;;;;;;1.08;0.60;;;18.10;52.00;20.30;94023.00;;;;10554622;27;45305;-59
2022/10/10 06:28:39;;;;;;;1.30;0.70;;;18.20;52.10;20.30;94019.00;;;;10517655;28;45225;-60
2022/10/10 06:33:59;;;;;;;1.15;0.70;;;18.10;52.00;20.20;94033.00;;;;10480954;27;45167;-59
2022/10/10 06:39:21;;;;;;;0.85;0.47;;;18.10;52.00;20.30;94027.00;;;;10533616;27;45257;-60
2022/10/10 06:44:42;;;;;;;1.20;0.80;;;18.10;52.00;20.30;94033.00;;;;10566637;27;45800;-60
2022/10/10 06:50:02;;;;;;;0.77;0.60;;;18.10;52.00;20.30;94053.00;;;;10566863;27;45168;-60
2022/10/10 06:55:24;;;;;;;1.58;0.70;;;18.10;52.00;20.30;94049.00;;;;10536407;27;45140;-60
2022/10/10 07:00:51;;;;;;;2.38;0.60;;;18.10;52.00;20.30;94057.00;;;;10527082;28;45252;-60
2022/10/10 07:06:12;;;;;;;1.33;0.70;;;18.10;52.00;20.30;94057.00;;;;10526658;28;45761;-60
2022/10/10 07:11:34;;;;;;;1.10;0.50;;;18.10;52.00;20.30;94053.00;;;;10545044;27;45858;-60
2022/10/10 07:16:54;;;;;;;1.38;0.70;;;18.10;52.00;20.30;94066.00;;;;10532680;27;44980;-59
2022/10/10 07:22:15;;;;;;;1.25;0.73;;;18.10;52.00;20.30;94075.00;;;;10526339;28;45361;-60
2022/10/10 07:27:37;;;;;;;0.68;0.50;;;18.10;52.00;20.30;94077.00;;;;10526582;28;45907;-60
2022/10/10 07:32:57;;;;;;;0.68;0.52;;;18.20;52.00;20.30;94080.00;;;;10526128;28;45247;-60
2022/10/10 07:38:18;;;;;;;1.00;0.50;;;18.20;52.10;20.30;94079.00;;;;10525361;28;45199;-60
2022/10/10 07:43:40;;;;;;;0.85;0.70;;;18.20;52.10;20.30;94091.00;;;;10525821;28;45217;-59
2022/10/10 07:49:00;;;;;;;0.50;0.50;;;18.10;52.00;20.30;94086.00;;;;10525359;28;45703;-59
2022/10/10 07:54:22;;;;;;;1.58;0.73;;;18.20;52.10;20.30;94091.00;;;;10525867;27;45109;-60
2022/10/10 07:59:44;;;;;;;1.83;0.65;;;18.20;52.20;20.30;94096.00;;;;10525841;28;45130;-60
2022/10/10 08:05:06;;;;;;;1.05;0.70;;;18.20;52.30;20.30;94078.00;;;;10525536;28;45178;-59
2022/10/10 08:10:27;;;;;;;0.95;0.60;;;18.20;52.30;20.30;94104.00;;;;10524651;28;45296;-60
2022/10/10 08:15:52;;;;;;;0.80;0.55;;;18.20;52.40;20.30;94104.00;;;;10524196;28;45301;-61
2022/10/10 08:21:15;;;;;;;2.00;0.70;;;18.20;52.50;20.30;94100.00;;;;10523810;28;45776;-60
2022/10/10 08:26:36;;;;;;;1.23;0.70;;;18.20;52.50;20.30;94106.00;;;;10524026;28;45191;-59
2022/10/10 08:31:57;;;;;;;0.88;0.57;;;18.20;52.40;20.30;94098.00;;;;10523870;28;45175;-59
2022/10/10 08:37:18;;;;;;;1.70;0.70;;;18.20;52.50;20.30;94108.00;;;;10523320;28;45903;-60
2022/10/10 08:42:44;;;;;;;2.47;0.65;;;18.20;52.40;20.30;94111.00;;;;10523160;28;45150;-60
2022/10/10 08:48:12;;;;;;;2.65;0.70;;;18.20;52.40;20.30;94099.00;;;;10523056;28;45136;-60
2022/10/10 08:53:39;;;;;;;2.03;0.90;;;18.20;52.40;20.30;94115.00;;;;10522938;28;45197;-59
2022/10/10 08:59:05;;;;;;;0.93;0.63;;;18.20;52.50;20.30;94100.00;;;;10522744;28;45698;-59
2022/10/10 09:04:31;;;;;;;2.00;0.90;;;18.20;52.50;20.30;94113.00;;;;10521690;28;45199;-61
2022/10/10 09:10:05;;;;;;;1.60;0.90;;;18.20;52.50;20.30;94107.00;;;;10522423;28;45121;-60
2022/10/10 09:15:31;;;;;;;1.73;0.70;;;18.20;52.40;20.30;94116.00;;;;10522411;28;45127;-59
2022/10/10 09:21:03;;;;;;;2.78;0.90;;;18.20;52.40;20.40;94111.00;;;;10522211;28;45233;-59
2022/10/10 09:26:28;;;;;;;1.40;0.90;;;18.20;52.50;20.40;94127.00;;;;10521759;28;45761;-60
2022/10/10 09:31:52;;;;;;;2.33;0.90;;;18.20;52.50;20.30;94139.00;;;;10521523;28;45164;-58
2022/10/10 09:37:19;;;;;;;2.22;1.00;;;18.20;52.50;20.40;94140.00;;;;10478469;28;46019;-59
2022/10/10 09:42:43;;;;;;;1.23;0.80;;;18.30;52.60;20.30;94131.00;;;;10478643;28;45305;-58
2022/10/10 09:48:04;;;;;;;1.73;1.00;;;18.30;52.60;20.30;94138.00;;;;10478616;28;45194;-59
2022/10/10 09:53:26;;;;;;;1.33;0.80;;;18.20;52.50;20.40;94141.00;;;;10478221;28;45251;-58
2022/10/10 09:58:49;;;;;;;2.20;1.00;;;18.30;52.60;20.40;94143.00;;;;10478478;28;45196;-58
2022/10/10 10:04:16;;;;;;;1.40;1.08;;;18.20;52.50;20.40;94135.00;;;;10478717;28;45367;-59
2022/10/10 10:09:38;;;;;;;2.00;0.85;;;18.20;52.60;20.40;94126.00;;;;10478687;28;45880;-59
2022/10/10 10:15:03;;;;;;;3.00;1.00;;;18.30;52.60;20.40;94134.00;;;;10478772;28;45274;-58
2022/10/10 10:20:35;;;;;;;1.48;1.00;;;18.30;52.70;20.40;94137.00;;;;10485511;28;45106;-59
2022/10/10 10:26:01;;;;;;;1.55;1.00;;;18.30;52.70;20.40;94132.00;;;;10485358;28;45752;-59
2022/10/10 10:31:42;;;;;;;3.00;0.83;;;18.30;52.70;20.40;94140.00;;;;10485846;28;45139;-58
2022/10/10 10:37:13;;;;;;;3.55;0.90;;;18.30;52.70;20.40;94145.00;;;;10526819;28;45795;-60
2022/10/10 10:42:54;;;;;;;1.63;1.00;;;18.30;52.80;20.40;94131.00;;;;10527755;28;45242;-60
2022/10/10 10:48:26;;;;;;;1.75;0.90;;;18.30;52.80;20.40;94134.00;;;;10527076;28;45105;-60
2022/10/10 10:53:57;;;;;;;1.30;0.77;;;18.30;52.80;20.40;94129.00;;;;10527823;28;45435;-60
2022/10/10 10:59:45;;;;;;;1.27;0.85;;;18.30;52.90;20.40;94138.00;;;;10527251;28;45901;-60
2022/10/10 11:05:36;;;;;;;1.80;1.02;;;18.30;52.90;20.40;94141.00;;;;10526760;28;45726;-60
2022/10/10 11:11:22;;;;;;;1.60;0.90;;;18.30;53.00;20.40;94134.00;;;;10525802;28;45222;-59
2022/10/10 11:16:50;;;;;;;3.70;1.00;;;18.30;53.00;20.40;94138.00;;;;10526723;28;45144;-60
2022/10/10 11:22:16;;;;;;;1.85;1.10;;;18.30;53.00;20.40;94131.00;;;;10525524;28;45412;-61
2022/10/10 11:27:42;;;;;;;1.42;0.98;;;18.30;53.10;20.40;94129.00;;;;10527733;27;45816;-60
2022/10/10 11:33:11;;;;;;;3.27;0.83;;;18.20;53.10;20.40;94134.00;;;;10568364;27;45228;-59
2022/10/10 11:38:38;;;;;;;1.42;0.90;;;18.30;53.30;20.40;94131.00;;;;10568444;27;45143;-59
2022/10/10 11:44:05;;;;;;;1.73;1.00;;;18.30;53.40;20.40;94136.00;;;;10563574;27;45498;-60
2022/10/10 11:49:36;;;;;;;1.27;0.77;;;18.30;53.60;20.40;94128.00;;;;10526202;28;45260;-60
2022/10/10 11:55:04;;;;;;;2.22;1.05;;;18.30;53.60;20.40;94127.00;;;;10525524;28;45192;-59
2022/10/10 12:00:28;;;;;;;2.90;1.00;;;18.30;53.60;20.40;94125.00;;;;10525249;28;45213;-60
2022/10/10 12:05:57;;;;;;;2.15;0.82;;;18.30;53.60;20.40;94109.00;;;;10525065;28;45263;-60
2022/10/10 12:11:24;;;;;;;1.15;0.80;;;18.30;53.70;20.40;94120.00;;;;10524773;28;45797;-60
2022/10/10 12:16:45;;;;;;;1.53;0.83;;;18.30;53.70;20.40;94098.00;;;;10524682;28;45131;-60
2022/10/10 12:22:10;;;;;;;1.48;0.70;;;18.30;53.70;20.50;94107.00;;;;10523963;28;45131;-60
2022/10/10 12:27:44;;;;;;;1.83;0.88;;;18.30;53.70;20.50;94108.00;;;;10523074;28;45205;-60
2022/10/10 12:33:19;;;;;;;1.50;0.85;;;18.30;53.80;20.50;94103.00;;;;10523457;28;45196;-61
2022/10/10 12:39:33;;;;;;;1.63;0.80;;;18.30;53.80;20.50;94100.00;;;;10521805;27;45694;-60
2022/10/10 12:44:54;;;;;;;0.80;0.80;;;18.30;53.90;20.50;94099.00;;;;10563888;27;45095;-60
2022/10/10 12:50:25;;;;;;;0.95;0.75;;;18.30;54.00;20.50;94094.00;;;;10547640;27;45167;-60
2022/10/10 12:55:51;;;;;;;1.10;0.80;;;18.40;54.00;20.50;94099.00;;;;10535028;27;45164;-60
2022/10/10 13:01:26;;;;;;;2.20;0.82;;;18.30;54.10;20.50;94097.00;;;;10520560;28;46113;-60
2022/10/10 13:06:49;;;;;;;1.02;0.73;;;18.40;54.10;20.50;94084.00;;;;10515147;27;45103;-59
2022/10/10 13:12:27;;;;;;;1.95;0.90;;;18.40;54.10;20.50;94076.00;;;;10518775;28;45856;-60
2022/10/10 13:17:47;;;;;;;1.25;0.80;;;18.40;54.10;20.50;94096.00;;;;10514727;28;45120;-58
2022/10/10 13:23:13;;;;;;;2.30;0.90;;;18.40;54.20;20.50;94089.00;;;;10518586;28;45591;-62
2022/10/10 13:28:37;;;;;;;1.10;0.70;;;18.40;54.10;20.50;94092.00;;;;10519706;27;45189;-61
2022/10/10 13:33:58;;;;;;;1.85;0.70;;;18.40;54.20;20.50;94084.00;;;;10533160;27;45879;-61
2022/10/10 13:39:19;;;;;;;1.70;0.80;;;18.40;54.30;20.50;94087.00;;;;10500169;28;45185;-61
2022/10/10 13:44:51;;;;;;;1.90;0.95;;;18.40;54.30;20.50;94090.00;;;;10526295;27;45251;-61
2022/10/10 13:50:24;;;;;;;1.48;0.65;;;18.40;54.40;20.50;94090.00;;;;10506068;28;45240;-61
2022/10/10 13:55:45;;;;;;;1.13;0.77;;;18.40;54.40;20.50;94086.00;;;;10527707;27;45150;-61
2022/10/10 14:01:28;;;;;;;1.02;0.80;;;18.40;54.40;20.50;94082.00;;;;10512114;28;45239;-61
2022/10/10 14:06:55;;;;;;;1.60;0.70;;;18.40;54.40;20.50;94087.00;;;;10509986;27;45228;-60
2022/10/10 14:12:23;;;;;;;1.40;0.70;;;18.40;54.40;20.50;94089.00;;;;10531401;27;45783;-60
2022/10/10 14:17:45;;;;;;;1.77;0.80;;;18.40;54.40;20.50;94078.00;;;;10551072;27;45206;-60
2022/10/10 14:23:06;;;;;;;1.08;0.60;;;18.40;54.30;20.50;94072.00;;;;10552128;27;45872;-61
2022/10/10 14:28:29;;;;;;;1.45;0.75;;;18.40;54.30;20.50;94076.00;;;;10551990;27;45204;-60
2022/10/10 14:33:52;;;;;;;1.38;0.82;;;18.40;54.30;20.50;94091.00;;;;10552334;27;45212;-60
2022/10/10 14:39:14;;;;;;;1.33;0.57;;;18.40;54.30;20.50;94086.00;;;;10494402;27;45895;-60
2022/10/10 14:44:35;;;;;;;0.85;0.60;;;18.40;54.30;20.50;94097.00;;;;10533561;27;45224;-60
2022/10/10 14:49:57;;;;;;;0.88;0.60;;;18.40;54.30;20.50;94085.00;;;;10551632;27;45116;-61
2022/10/10 14:55:18;;;;;;;1.63;0.57;;;18.40;54.30;20.60;94102.00;;;;10553467;27;45632;-61
2022/10/10 15:00:38;;;;;;;1.75;0.70;;;18.40;54.30;20.60;94108.00;;;;10526268;27;45767;-61
2022/10/10 15:06:00;;;;;;;2.72;0.60;;;18.40;54.30;20.60;94108.00;;;;10558003;27;45742;-61
2022/10/10 15:11:21;;;;;;;1.83;0.60;;;18.40;54.40;20.60;94108.00;;;;10533835;27;45965;-60
2022/10/10 15:16:41;;;;;;;1.05;0.60;;;18.40;54.40;20.50;94105.00;;;;10558238;27;45291;-60
2022/10/10 15:22:03;;;;;;;1.02;0.50;;;18.40;54.40;20.50;94113.00;;;;10558337;27;45175;-61
2022/10/10 15:27:24;;;;;;;0.50;0.50;;;18.40;54.40;20.60;94108.00;;;;10528290;27;46243;-60
2022/10/10 15:32:44;;;;;;;1.13;0.63;;;18.40;54.40;20.50;94122.00;;;;10516551;27;45158;-60
2022/10/10 15:38:06;;;;;;;0.70;0.50;;;18.40;54.40;20.50;94116.00;;;;10511357;27;45241;-60
2022/10/10 15:43:28;;;;;;;0.95;0.50;;;18.40;54.40;20.50;94123.00;;;;10512886;28;45167;-61
2022/10/10 15:48:48;;;;;;;0.50;0.50;;;18.40;54.40;20.60;94143.00;;;;10512468;27;45900;-60
2022/10/10 15:54:11;;;;;;;1.05;0.50;;;18.40;54.40;20.60;94140.00;;;;10509751;28;45197;-60
2022/10/10 15:59:31;;;;;;;1.20;0.60;;;18.40;54.50;20.50;94122.00;;;;10529094;27;45204;-60
2022/10/10 16:04:52;;;;;;;1.70;0.43;;;18.40;54.50;20.60;94140.00;;;;10554991;27;45247;-61
2022/10/10 16:10:14;;;;;;;1.35;0.50;;;18.40;54.50;20.50;94136.00;;;;10521263;27;45355;-61
2022/10/10 16:15:35;;;;;;;0.50;0.50;;;18.40;54.60;20.60;94130.00;;;;10556200;27;45792;-61
2022/10/10 16:20:57;;;;;;;0.43;0.30;;;18.40;54.50;20.60;94134.00;;;;10521739;27;45188;-61
2022/10/10 16:26:22;;;;;;;1.65;0.70;;;18.40;54.60;20.60;94123.00;;;;10534783;27;45137;-61
2022/10/10 16:31:42;;;;;;;0.52;0.47;;;18.40;54.60;20.60;94132.00;;;;10543080;27;45489;-61
2022/10/10 16:37:03;;;;;;;1.88;0.47;;;18.50;54.70;20.60;94154.00;;;;10499162;28;45260;-61
2022/10/10 16:42:25;;;;;;;0.80;0.50;;;18.40;54.70;20.60;94153.00;;;;10520260;27;45728;-61
2022/10/10 16:47:45;;;;;;;1.05;0.50;;;18.40;54.70;20.60;94157.00;;;;10534443;27;45257;-61
2022/10/10 16:53:06;;;;;;;0.50;0.40;;;18.40;54.70;20.60;94152.00;;;;10512578;28;45168;-61
2022/10/10 16:58:29;;;;;;;0.55;0.40;;;18.40;54.70;20.60;94167.00;;;;10514117;28;45698;-61
2022/10/10 17:03:51;;;;;;;1.10;0.50;;;18.50;54.70;20.60;94171.00;;;;10534808;27;45192;-61
2022/10/10 17:09:12;;;;;;;1.10;0.60;;;18.40;54.70;20.60;94172.00;;;;10556597;27;45167;-61
2022/10/10 17:14:34;;;;;;;1.33;0.65;;;18.40;54.70;20.60;94181.00;;;;10526019;27;45796;-61
2022/10/10 17:19:55;;;;;;;0.80;0.50;;;18.40;54.70;20.60;94198.00;;;;10513970;28;45209;-61
2022/10/10 17:25:15;;;;;;;0.77;0.60;;;18.40;54.80;20.60;94191.00;;;;10535873;27;45711;-61
2022/10/10 17:30:42;;;;;;;1.25;0.63;;;18.50;54.90;20.60;94195.00;;;;10555789;27;45234;-61
2022/10/10 17:36:08;;;;;;;2.20;0.57;;;18.40;54.90;20.60;94196.00;;;;10504743;27;45297;-61
2022/10/10 17:41:28;;;;;;;1.55;0.60;;;18.50;55.00;20.60;94201.00;;;;10500461;27;45181;-61
2022/10/10 17:46:50;;;;;;;0.75;0.43;;;18.40;54.90;20.60;94202.00;;;;10498874;27;45209;-60
2022/10/10 17:52:11;;;;;;;1.15;0.47;;;18.50;54.90;20.60;94206.00;;;;10507482;27;45696;-61
2022/10/10 17:57:33;;;;;;;1.25;0.50;;;18.40;54.90;20.60;94207.00;;;;10506019;27;45384;-61
2022/10/10 18:02:55;;;;;;;1.90;0.70;;;18.50;55.00;20.60;94211.00;;;;10499820;27;45753;-61
2022/10/10 18:08:16;;;;;;;0.88;0.60;;;18.40;54.90;20.60;94214.00;;;;10522824;27;45096;-60
2022/10/10 18:13:36;;;;;;;1.27;0.65;;;18.40;54.90;20.60;94224.00;;;;10512050;27;45811;-61
2022/10/10 18:18:59;;;;;;;0.80;0.50;;;18.40;54.90;20.60;94219.00;;;;10512237;28;45138;-61
2022/10/10 18:24:19;;;;;;;1.00;0.60;;;18.40;54.90;20.60;94235.00;;;;10508111;27;45701;-61
2022/10/10 18:29:41;;;;;;;1.83;0.57;;;18.40;54.90;20.60;94226.00;;;;10531749;27;45172;-61
2022/10/10 18:35:03;;;;;;;2.90;0.47;;;18.50;54.90;20.60;94230.00;;;;10528732;27;45157;-60
2022/10/10 18:40:23;;;;;;;1.55;0.50;;;18.40;54.80;20.60;94235.00;;;;10502200;28;45857;-61
2022/10/10 18:45:44;;;;;;;0.98;0.40;;;18.40;54.80;20.60;94234.00;;;;10547290;27;45170;-61
2022/10/10 18:51:09;;;;;;;0.50;0.40;;;18.40;54.80;20.60;94237.00;;;;10537132;27;45232;-61
2022/10/10 18:56:31;;;;;;;1.85;0.50;;;18.50;54.80;20.60;94239.00;;;;10559698;27;45200;-61
2022/10/10 19:01:52;;;;;;;0.68;0.40;;;18.40;54.80;20.60;94244.00;;;;10532968;27;45667;-61
2022/10/10 19:07:14;;;;;;;1.83;0.52;;;18.50;54.80;20.60;94248.00;;;;10519781;27;45476;-61
2022/10/10 19:12:35;;;;;;;0.85;0.47;;;18.50;54.70;20.60;94248.00;;;;10538022;27;45691;-60
2022/10/10 19:17:56;;;;;;;0.98;0.50;;;18.40;54.70;20.60;94247.00;;;;10506828;28;45226;-61
2022/10/10 19:23:18;;;;;;;2.00;0.68;;;18.50;54.70;20.60;94252.00;;;;10548896;27;45146;-60
2022/10/10 19:28:40;;;;;;;0.70;0.50;;;18.40;54.70;20.60;94257.00;;;;10557118;27;45221;-60
2022/10/10 19:34:01;;;;;;;0.82;0.60;;;18.40;54.70;20.60;94250.00;;;;10527190;27;45256;-60
2022/10/10 19:39:23;;;;;;;0.98;0.70;;;18.40;54.60;20.60;94266.00;;;;10533125;27;45510;-60
2022/10/10 19:44:46;;;;;;;1.27;0.63;;;18.50;54.70;20.60;94264.00;;;;10534519;27;45223;-60
2022/10/10 19:50:07;;;;;;;0.63;0.60;;;18.40;54.60;20.60;94262.00;;;;10526116;27;45148;-61
2022/10/10 19:55:30;;;;;;;0.82;0.52;;;18.40;54.60;20.60;94274.00;;;;10538906;27;45345;-61
2022/10/10 20:00:50;;;;;;;2.50;0.70;;;18.40;54.60;20.60;94278.00;;;;10516170;28;45499;-60
2022/10/10 20:06:11;;;;;;;1.60;0.80;;;18.50;54.60;20.60;94285.00;;;;10515105;28;45209;-61
2022/10/10 20:11:33;;;;;;;1.88;0.80;;;18.40;54.60;20.60;94281.00;;;;10518127;28;45263;-61
2022/10/10 20:16:55;;;;;;;1.08;0.68;;;18.50;54.60;20.60;94289.00;;;;10515203;28;45268;-61
2022/10/10 20:22:16;;;;;;;1.23;0.60;;;18.40;54.60;20.60;94293.00;;;;10515553;28;45202;-61
2022/10/10 20:27:38;;;;;;;1.00;0.70;;;18.50;54.60;20.60;94303.00;;;;10519045;27;45683;-61
2022/10/10 20:32:58;;;;;;;1.20;0.65;;;18.40;54.50;20.60;94293.00;;;;10557839;27;45158;-61
2022/10/10 20:38:19;;;;;;;1.30;0.60;;;18.50;54.60;20.60;94299.00;;;;10506813;27;45108;-60
2022/10/10 20:43:41;;;;;;;0.80;0.60;;;18.40;54.50;20.60;94305.00;;;;10517572;27;45154;-61
2022/10/10 20:49:07;;;;;;;1.73;0.60;;;18.40;54.60;20.60;94319.00;;;;10519363;27;45267;-61
2022/10/10 20:54:28;;;;;;;2.15;0.65;;;18.40;54.60;20.60;94329.00;;;;10512447;28;45237;-61
2022/10/10 20:59:50;;;;;;;1.70;0.68;;;18.40;54.60;20.50;94321.00;;;;10500514;27;45135;-61
2022/10/10 21:05:11;;;;;;;1.58;0.70;;;18.40;54.60;20.50;94330.00;;;;10527985;27;45448;-60
2022/10/10 21:10:31;;;;;;;0.75;0.50;;;18.40;54.60;20.50;94330.00;;;;10513478;28;45252;-61
2022/10/10 21:15:54;;;;;;;0.90;0.50;;;18.40;54.60;20.50;94334.00;;;;10513243;28;45565;-61
2022/10/10 21:21:14;;;;;;;1.88;0.45;;;18.40;54.60;20.50;94330.00;;;;10513065;28;45249;-60
2022/10/10 21:26:35;;;;;;;1.58;0.50;;;18.40;54.50;20.50;94334.00;;;;10525412;27;45810;-61
2022/10/10 21:31:57;;;;;;;0.90;0.50;;;18.40;54.50;20.50;94333.00;;;;10538411;27;45109;-61
2022/10/10 21:37:17;;;;;;;1.30;0.50;;;18.40;54.50;20.50;94345.00;;;;10514951;27;45702;-61
2022/10/10 21:42:38;;;;;;;1.65;0.60;;;18.30;54.50;20.50;94340.00;;;;10519239;27;45253;-61
2022/10/10 21:48:00;;;;;;;1.10;0.50;;;18.40;54.50;20.50;94343.00;;;;10555263;27;45726;-61
2022/10/10 21:53:20;;;;;;;1.17;0.50;;;18.40;54.50;20.50;94345.00;;;;10541419;27;45229;-60
2022/10/10 21:58:44;;;;;;;1.27;0.50;;;18.40;54.40;20.50;94348.00;;;;10525825;27;45117;-60
2022/10/10 22:04:06;;;;;;;1.17;0.63;;;18.40;54.50;20.50;94335.00;;;;10512362;28;45254;-61
2022/10/10 22:09:27;;;;;;;0.95;0.60;;;18.40;54.40;20.50;94329.00;;;;10513479;27;45103;-61
2022/10/10 22:14:47;;;;;;;2.90;0.60;;;18.40;54.40;20.50;94339.00;;;;10559253;27;45177;-61
2022/10/10 22:20:12;;;;;;;1.23;0.30;;;18.30;54.40;20.50;94329.00;;;;10561520;27;45126;-61
2022/10/10 22:25:32;;;;;;;0.93;0.50;;;18.30;54.60;20.50;94342.00;;;;10535140;27;45201;-61
2022/10/10 22:30:53;;;;;;;2.90;0.50;;;18.30;54.40;20.50;94351.00;;;;10534670;27;45225;-61
2022/10/10 22:36:15;;;;;;;0.80;0.45;;;18.30;54.40;20.50;94340.00;;;;10534761;27;45682;-61
2022/10/10 22:41:36;;;;;;;0.98;0.50;;;18.40;54.40;20.50;94343.00;;;;10524259;27;45314;-61
2022/10/10 22:46:57;;;;;;;1.65;0.50;;;18.30;54.40;20.50;94336.00;;;;10508106;27;45228;-61
2022/10/10 22:52:19;;;;;;;2.22;0.60;;;18.30;54.40;20.50;94345.00;;;;10561017;27;45200;-61
2022/10/10 22:57:39;;;;;;;1.20;0.50;;;18.30;54.40;20.50;94351.00;;;;10560285;27;45785;-61
2022/10/10 23:03:00;;;;;;;1.50;0.50;;;18.30;54.40;20.50;94344.00;;;;10540895;27;45678;-61
2022/10/10 23:08:22;;;;;;;0.98;0.60;;;18.30;54.40;20.50;94349.00;;;;10522211;27;45273;-61
2022/10/10 23:13:43;;;;;;;1.90;0.60;;;18.30;54.40;20.40;94346.00;;;;10560728;27;45265;-60
2022/10/10 23:19:04;;;;;;;1.58;0.45;;;18.30;54.40;20.40;94336.00;;;;10558633;27;45792;-61
2022/10/10 23:24:25;;;;;;;0.70;0.60;;;18.30;54.40;20.40;94348.00;;;;10559225;27;45875;-61
2022/10/10 23:29:46;;;;;;;1.00;0.50;;;18.30;54.40;20.40;94341.00;;;;10517023;28;45228;-61
2022/10/10 23:35:08;;;;;;;1.42;0.43;;;18.30;54.40;20.40;94355.00;;;;10516386;28;45331;-61
2022/10/10 23:40:31;;;;;;;1.17;0.40;;;18.30;54.40;20.40;94361.00;;;;10503630;28;45374;-61